Time;durP1;ratioP1;P1;durP2;ratioP2;P2;SDS_P1;SDS_P2;PMS_P1;PMS_P2;Temp;Humidity;BMP_temperature;BMP_pressure;BME280_temperature;BME280_humidity;BME280_pressure;Samples;Min_cycle;Max_cycle;Signal;HPM_P1;HPM_P2
2024/04/04 00:01:39;;;;;;;;;;;;;;;;;;5096324;28;20149;-59
2024/04/04 00:04:07;;;;;;;;;;;;;;;;;;5096483;28;20219;-58
2024/04/04 00:06:32;;;;;;;;;;;;;;;;;;5096178;28;20145;-58
2024/04/04 00:08:58;;;;;;;;;;;;;;;;;;5096060;28;20070;-59
2024/04/04 00:11:24;;;;;;;;;;;;;;;;;;5096261;28;20486;-58
2024/04/04 00:13:50;;;;;;;;;;;;;;;;;;5096069;28;20232;-58
2024/04/04 00:16:16;;;;;;;;;;;;;;;;;;5096328;28;20202;-58
2024/04/04 00:18:42;;;;;;;;;;;;;;;;;;5096172;28;20101;-60
2024/04/04 00:21:08;;;;;;;;;;;;;;;;;;5095846;28;20630;-58
2024/04/04 00:23:34;;;;;;;;;;;;;;;;;;5095979;28;20166;-58
2024/04/04 00:26:00;;;;;;;;;;;;;;;;;;5096625;28;20546;-58
2024/04/04 00:28:26;;;;;;;;;;;;;;;;;;5096098;28;20549;-58
2024/04/04 00:30:52;;;;;;;;;;;;;;;;;;5096320;28;20955;-58
2024/04/04 00:33:18;;;;;;;;;;;;;;;;;;5096460;28;20634;-58
2024/04/04 00:35:44;;;;;;;;;;;;;;;;;;5096481;28;20607;-59
2024/04/04 00:38:10;;;;;;;;;;;;;;;;;;5116422;28;20639;-58
2024/04/04 00:40:36;;;;;;;;;;;;;;;;;;5115760;28;20205;-58
2024/04/04 00:43:02;;;;;;;;;;;;;;;;;;5112666;28;20069;-58
2024/04/04 00:45:28;;;;;;;;;;;;;;;;;;5112506;28;20478;-58
2024/04/04 00:47:53;;;;;;;;;;;;;;;;;;5112894;28;20051;-56
2024/04/04 00:50:19;;;;;;;;;;;;;;;;;;5111885;28;20101;-56
2024/04/04 00:52:45;;;;;;;;;;;;;;;;;;5112568;28;20403;-57
2024/04/04 00:55:11;;;;;;;;;;;;;;;;;;5112704;28;20066;-56
2024/04/04 00:57:37;;;;;;;;;;;;;;;;;;5113520;28;20215;-57
2024/04/04 01:00:04;;;;;;;;;;;;;;;;;;5112853;28;20210;-58
2024/04/04 01:02:29;;;;;;;;;;;;;;;;;;5113096;28;20645;-56
2024/04/04 01:04:55;;;;;;;;;;;;;;;;;;5112396;28;20204;-56
2024/04/04 01:07:21;;;;;;;;;;;;;;;;;;5113048;28;20201;-56
2024/04/04 01:09:47;;;;;;;;;;;;;;;;;;5112647;28;20334;-56
2024/04/04 01:12:13;;;;;;;;;;;;;;;;;;5112613;28;20269;-56
2024/04/04 01:14:39;;;;;;;;;;;;;;;;;;5112287;28;20205;-56
2024/04/04 01:17:05;;;;;;;;;;;;;;;;;;5112703;28;20204;-56
2024/04/04 01:19:31;;;;;;;;;;;;;;;;;;5112678;28;20579;-55
2024/04/04 01:21:57;;;;;;;2.70;1.30;;;;;;;;;;5111952;28;20275;-56
2024/04/04 01:24:23;;;;;;;2.57;1.60;;;;;;;;;;5111936;28;20159;-56
2024/04/04 01:26:49;;;;;;;2.30;1.07;;;;;;;;;;5111984;28;20683;-56
2024/04/04 01:29:15;;;;;;;4.20;1.40;;;;;;;;;;5093061;28;20203;-56
2024/04/04 01:31:41;;;;;;;3.67;1.40;;;;;;;;;;5111954;28;20213;-56
2024/04/04 01:34:07;;;;;;;4.03;1.47;;;;;;;;;;5093427;28;20164;-57
2024/04/04 01:36:33;;;;;;;4.03;1.40;;;;;;;;;;5103983;28;20563;-56
2024/04/04 01:38:59;;;;;;;5.67;1.50;;;;;;;;;;5091266;28;20160;-56
2024/04/04 01:41:25;;;;;;;2.17;1.23;;;;;;;;;;5091170;28;20173;-57
2024/04/04 01:43:51;;;;;;;4.27;1.57;;;;;;;;;;5091087;28;20168;-57
2024/04/04 01:46:17;;;;;;;3.03;1.67;;;;;;;;;;5091400;28;20175;-56
2024/04/04 01:48:43;;;;;;;2.23;1.50;;;;;;;;;;5091477;28;20503;-56
2024/04/04 01:51:09;;;;;;;2.80;1.50;;;;;;;;;;5107251;27;20170;-57
2024/04/04 01:53:37;;;;;;;3.03;1.43;;;;;;;;;;5130683;27;20167;-56
2024/04/04 01:56:03;;;;;;;2.80;1.70;;;;;;;;;;5132126;27;20158;-56
2024/04/04 01:58:29;;;;;;;2.80;1.80;;;;;;;;;;5131644;27;20566;-56
2024/04/04 02:00:55;;;;;;;9.37;2.23;;;;;;;;;;5132235;27;20219;-56
2024/04/04 02:03:21;;;;;;;4.17;1.40;;;;;;;;;;5131992;27;20171;-57
2024/04/04 02:05:47;;;;;;;3.27;1.53;;;;;;;;;;5131498;27;20170;-56
2024/04/04 02:08:13;;;;;;;4.73;2.10;;;;;;;;;;5112759;27;20721;-58
2024/04/04 02:10:39;;;;;;;2.63;1.40;;;;;;;;;;5131691;27;20248;-57
2024/04/04 02:13:05;;;;;;;4.32;1.75;;;;;;;;;;5130887;27;20401;-58
2024/04/04 02:15:37;;;;;;;3.30;1.80;;;;;;;;;;5131219;27;20152;-57
2024/04/04 02:18:04;;;;;;;2.57;1.43;;;;;;;;;;5131747;27;20629;-58
2024/04/04 02:20:30;;;;;;;3.93;1.97;;;;;;;;;;5131031;27;20185;-56
2024/04/04 02:22:56;;;;;;;3.30;1.53;;;;;;;;;;5131205;27;20560;-57
2024/04/04 02:25:22;;;;;;;3.10;1.80;;;;;;;;;;5131154;27;20250;-57
2024/04/04 02:27:48;;;;;;;3.13;1.53;;;;;;;;;;5131512;27;20201;-57
2024/04/04 02:30:15;;;;;;;1.87;1.40;;;;;;;;;;5131022;27;20190;-56
2024/04/04 02:32:41;;;;;;;5.40;1.70;;;;;;;;;;5131346;27;20618;-56
2024/04/04 02:35:08;;;;;;;3.70;2.47;;;;;;;;;;5130976;27;20575;-56
2024/04/04 02:37:34;;;;;;;3.47;1.53;;;;;;;;;;5115197;27;20171;-56
2024/04/04 02:40:00;;;;;;;5.87;1.57;;;;;;;;;;5110343;28;20618;-56
2024/04/04 02:42:26;;;;;;;6.87;2.30;;;;;;;;;;5110410;28;20175;-56
2024/04/04 02:44:52;;;;;;;2.67;1.30;;;;;;;;;;5110309;28;20304;-57
2024/04/04 02:47:18;;;;;;;3.23;1.40;;;;;;;;;;5110905;28;20274;-56
2024/04/04 02:49:45;;;;;;;3.27;1.90;;;;;;;;;;5092305;28;20649;-56
2024/04/04 02:52:11;;;;;;;2.80;1.40;;;;;;;;;;5110092;28;20156;-56
2024/04/04 02:54:37;;;;;;;2.77;1.77;;;;;;;;;;5110749;28;20151;-56
2024/04/04 02:57:03;;;;;;;3.33;1.83;;;;;;;;;;5092254;28;20186;-56
2024/04/04 02:59:29;;;;;;;3.13;1.40;;;;;;;;;;5091636;28;20645;-57
2024/04/04 03:01:55;;;;;;;3.27;1.40;;;;;;;;;;5110852;28;20622;-55
2024/04/04 03:04:21;;;;;;;2.17;1.53;;;;;;;;;;5110517;28;20634;-56
2024/04/04 03:06:47;;;;;;;5.40;1.70;;;;;;;;;;5110439;28;20618;-55
2024/04/04 03:09:13;;;;;;;6.37;1.70;;;;;;;;;;5109803;28;20191;-54
2024/04/04 03:11:39;;;;;;;4.57;1.60;;;;;;;;;;5110318;28;20167;-56
2024/04/04 03:14:05;;;;;;;2.93;1.50;;;;;;;;;;5109592;28;20167;-54
2024/04/04 03:16:31;;;;;;;2.20;1.87;;;;;;;;;;5092120;28;20179;-54
2024/04/04 03:18:57;;;;;;;2.87;1.80;;;;;;;;;;5110159;28;20774;-54
2024/04/04 03:21:23;;;;;;;3.93;1.43;;;;;;;;;;5109625;28;20172;-55
2024/04/04 03:23:49;;;;;;;3.97;1.70;;;;;;;;;;5109462;28;20753;-54
2024/04/04 03:26:15;;;;;;;3.23;1.70;;;;;;;;;;5109929;28;20273;-55
2024/04/04 03:28:41;;;;;;;3.70;1.60;;;;;;;;;;5109537;28;20170;-53
2024/04/04 03:31:08;;;;;;;3.80;1.90;;;;;;;;;;5109963;28;20171;-54
2024/04/04 03:33:34;;;;;;;2.53;1.60;;;;;;;;;;5110421;28;20266;-55
2024/04/04 03:36:04;;;;;;;3.23;1.70;;;;;;;;;;5106812;28;21605;-55
2024/04/04 03:38:30;;;;;;;1.50;1.33;;;;;;;;;;5089519;28;20164;-55
2024/04/04 03:40:56;;;;;;;3.80;1.70;;;;;;;;;;5090052;28;20266;-55
2024/04/04 03:43:23;;;;;;;3.60;1.60;;;;;;;;;;5089311;28;20259;-55
2024/04/04 03:45:49;;;;;;;2.17;1.60;;;;;;;;;;5090184;28;20171;-55
2024/04/04 03:48:19;;;;;;;5.13;1.93;;;;;;;;;;5089540;28;20448;-55
2024/04/04 03:50:45;;;;;;;3.33;1.70;;;;;;;;;;5089327;28;20279;-55
2024/04/04 03:53:12;;;;;;;2.43;1.50;;;;;;;;;;5089269;28;20253;-55
2024/04/04 03:55:38;;;;;;;3.40;1.73;;;;;;;;;;5089536;28;20166;-55
2024/04/04 03:58:04;;;;;;;3.10;1.93;;;;;;;;;;5089658;28;20259;-55
2024/04/04 04:00:30;;;;;;;3.17;1.77;;;;;;;;;;5089109;28;20168;-55
2024/04/04 04:02:56;;;;;;;3.80;1.80;;;;;;;;;;5089704;28;20621;-55
2024/04/04 04:05:22;;;;;;;2.47;1.83;;;;;;;;;;5088971;28;20211;-55
2024/04/04 04:07:48;;;;;;;4.13;1.90;;;;;;;;;;5089081;28;20251;-55
2024/04/04 04:10:14;;;;;;;3.00;1.70;;;;;;;;;;5089525;28;20206;-55
2024/04/04 04:12:40;;;;;;;3.40;1.87;;;;;;;;;;5089274;28;20172;-55
2024/04/04 04:15:06;;;;;;;3.13;2.00;;;;;;;;;;5089014;28;20169;-56
2024/04/04 04:17:33;;;;;;;4.07;2.00;;;;;;;;;;5090850;28;20283;-55
2024/04/04 04:19:59;;;;;;;2.80;1.70;;;;;;;;;;5093003;28;20259;-55
2024/04/04 04:22:25;;;;;;;2.07;1.60;;;;;;;;;;5093229;28;20220;-55
2024/04/04 04:24:51;;;;;;;2.33;1.37;;;;;;;;;;5092993;28;20585;-55
2024/04/04 04:27:17;;;;;;;4.87;2.00;;;;;;;;;;5093303;28;20203;-55
2024/04/04 04:29:43;;;;;;;3.20;1.80;;;;;;;;;;5092553;28;20617;-55
2024/04/04 04:32:09;;;;;;;2.23;1.83;;;;;;;;;;5093148;28;20526;-55
2024/04/04 04:34:35;;;;;;;4.20;1.67;;;;;;;;;;5093066;28;20172;-55
2024/04/04 04:37:06;;;;;;;3.73;2.00;;;;;;;;;;5092548;28;20529;-55
2024/04/04 04:39:32;;;;;;;2.60;1.90;;;;;;;;;;5092557;28;20286;-55
2024/04/04 04:41:58;;;;;;;2.53;2.07;;;;;;;;;;5092823;28;20602;-55
2024/04/04 04:44:25;;;;;;;3.83;2.03;;;;;;;;;;5092212;28;20290;-56
2024/04/04 04:46:51;;;;;;;3.47;1.93;;;;;;;;;;5092903;28;20210;-56
2024/04/04 04:49:19;;;;;;;2.87;1.93;;;;;;;;;;5092274;28;20210;-55
2024/04/04 04:51:45;;;;;;;2.93;2.03;;;;;;;;;;5092172;28;20175;-58
2024/04/04 04:54:11;;;;;;;2.13;1.57;;;;;;;;;;5092090;28;20164;-58
2024/04/04 04:56:37;;;;;;;2.27;1.90;;;;;;;;;;5092517;28;20175;-58
2024/04/04 04:59:04;;;;;;;3.97;1.73;;;;;;;;;;5091998;28;20174;-58
2024/04/04 05:01:30;;;;;;;2.80;1.70;;;;;;;;;;5092656;28;20164;-57
2024/04/04 05:03:56;;;;;;;3.93;1.70;;;;;;;;;;5092411;28;20665;-56
2024/04/04 05:06:23;;;;;;;3.77;1.53;;;;;;;;;;5091692;28;20255;-56
2024/04/04 05:08:49;;;;;;;2.53;1.83;;;;;;;;;;5091688;28;20156;-56
2024/04/04 05:11:16;;;;;;;2.47;1.90;;;;;;;;;;5092350;28;20620;-56
2024/04/04 05:13:42;;;;;;;3.03;1.83;;;;;;;;;;5091470;28;20172;-57
2024/04/04 05:16:08;;;;;;;2.50;1.77;;;;;;;;;;5091966;28;20557;-56
2024/04/04 05:18:34;;;;;;;2.97;2.27;;;;;;;;;;5091602;28;20290;-56
2024/04/04 05:21:01;;;;;;;5.33;2.13;;;;;;;;;;5091044;28;20263;-56
2024/04/04 05:23:27;;;;;;;2.40;1.73;;;;;;;;;;5090638;28;20231;-56
2024/04/04 05:25:53;;;;;;;3.00;1.97;;;;;;;;;;5091807;28;20156;-56
2024/04/04 05:28:25;;;;;;;3.80;2.57;;;;;;;;;;5090482;28;20209;-56
2024/04/04 05:30:51;;;;;;;6.63;2.50;;;;;;;;;;5091434;28;20202;-56
2024/04/04 05:33:17;;;;;;;3.87;2.13;;;;;;;;;;5091687;28;20164;-55
2024/04/04 05:35:43;;;;;;;4.33;2.23;;;;;;;;;;5091483;28;20263;-56
2024/04/04 05:38:10;;;;;;;5.20;2.00;;;;;;;;;;5091452;28;20239;-56
2024/04/04 05:40:36;;;;;;;4.37;2.30;;;;;;;;;;5091743;28;20519;-55
2024/04/04 05:43:02;;;;;;;4.63;2.13;;;;;;;;;;5091686;28;20619;-58
2024/04/04 05:45:28;;;;;;;4.60;2.20;;;;;;;;;;5091009;28;20200;-55
2024/04/04 05:47:54;;;;;;;3.93;2.10;;;;;;;;;;5091746;28;20642;-55
2024/04/04 05:50:20;;;;;;;5.70;2.00;;;;;;;;;;5090598;28;20220;-55
2024/04/04 05:52:46;;;;;;;3.77;1.97;;;;;;;;;;5091167;28;20167;-55
2024/04/04 05:55:13;;;;;;;4.00;2.30;;;;;;;;;;5091168;28;20160;-55
2024/04/04 05:57:39;;;;;;;5.57;2.90;;;;;;;;;;5094281;28;20168;-55
2024/04/04 06:00:08;;;;;;;2.87;2.07;;;;;;;;;;5110855;28;20187;-55
2024/04/04 06:02:34;;;;;;;2.97;1.80;;;;;;;;;;5111576;28;20694;-55
2024/04/04 06:05:00;;;;;;;6.10;3.33;;;;;;;;;;5110732;28;20174;-55
2024/04/04 06:07:26;;;;;;;3.83;2.50;;;;;;;;;;5111372;28;20171;-55
2024/04/04 06:09:52;;;;;;;2.90;2.53;;;;;;;;;;5110639;28;20201;-55
2024/04/04 06:12:18;;;;;;;2.87;2.20;;;;;;;;;;5111476;28;20283;-55
2024/04/04 06:14:46;;;;;;;3.77;2.20;;;;;;;;;;5092402;28;20171;-55
2024/04/04 06:17:12;;;;;;;4.93;2.60;;;;;;;;;;5111163;28;20607;-55
2024/04/04 06:19:38;;;;;;;4.37;2.63;;;;;;;;;;5111345;28;20163;-55
2024/04/04 06:22:04;;;;;;;3.73;2.30;;;;;;;;;;5110446;28;20175;-54
2024/04/04 06:24:31;;;;;;;3.93;3.27;;;;;;;;;;5108032;28;20689;-54
2024/04/04 06:26:57;;;;;;;5.67;2.90;;;;;;;;;;5102233;28;20179;-54
2024/04/04 06:29:24;;;;;;;5.57;2.93;;;;;;;;;;5090024;28;20553;-55
2024/04/04 06:31:50;;;;;;;7.27;2.97;;;;;;;;;;5090796;28;20182;-54
2024/04/04 06:34:17;;;;;;;3.90;2.87;;;;;;;;;;5090564;28;20172;-53
2024/04/04 06:36:43;;;;;;;5.33;3.13;;;;;;;;;;5099117;28;20420;-54
2024/04/04 06:39:10;;;;;;;4.00;3.30;;;;;;;;;;5109894;28;20193;-54
2024/04/04 06:41:36;;;;;;;4.60;2.93;;;;;;;;;;5110612;28;20147;-54
2024/04/04 06:44:03;;;;;;;4.20;2.50;;;;;;;;;;5110464;28;20210;-54
2024/04/04 06:46:29;;;;;;;5.30;3.13;;;;;;;;;;5110773;28;20194;-54
2024/04/04 06:48:55;;;;;;;6.77;3.20;;;;;;;;;;5110773;28;20889;-54
2024/04/04 06:51:21;;;;;;;5.53;2.80;;;;;;;;;;5110134;28;20170;-54
2024/04/04 06:53:47;;;;;;;4.43;3.00;;;;;;;;;;5110349;28;20626;-54
2024/04/04 06:56:13;;;;;;;3.73;2.83;;;;;;;;;;5110308;28;20161;-54
2024/04/04 06:58:39;;;;;;;5.33;3.10;;;;;;;;;;5109763;28;20170;-54
2024/04/04 07:01:05;;;;;;;7.27;3.60;;;;;;;;;;5110119;28;20163;-54
2024/04/04 07:03:31;;;;;;;4.70;2.97;;;;;;;;;;5110592;28;20523;-54
2024/04/04 07:05:57;;;;;;;6.00;2.67;;;;;;;;;;5110392;28;20163;-54
2024/04/04 07:08:23;;;;;;;4.43;2.63;;;;;;;;;;5109802;28;20179;-54
2024/04/04 07:10:49;;;;;;;3.87;2.80;;;;;;;;;;5110354;28;20292;-54
2024/04/04 07:13:19;;;;;;;5.73;3.03;;;;;;;;;;5109950;28;20183;-54
2024/04/04 07:15:45;;;;;;;3.77;2.50;;;;;;;;;;5110289;28;20220;-54
2024/04/04 07:18:11;;;;;;;5.77;2.60;;;;;;;;;;5110312;28;20608;-55
2024/04/04 07:20:40;;;;;;;4.13;2.60;;;;;;;;;;5109863;28;20171;-55
2024/04/04 07:23:06;;;;;;;5.77;3.37;;;;;;;;;;5109381;28;20233;-54
2024/04/04 07:25:33;;;;;;;5.40;2.67;;;;;;;;;;5110204;28;20502;-54
2024/04/04 07:28:00;;;;;;;6.17;2.70;;;;;;;;;;5110093;28;20507;-53
2024/04/04 07:30:28;;;;;;;5.70;2.70;;;;;;;;;;5109416;28;20218;-53
2024/04/04 07:32:54;;;;;;;7.10;2.27;;;;;;;;;;5109954;28;20171;-53
2024/04/04 07:35:20;;;;;;;5.20;2.50;;;;;;;;;;5109651;28;20522;-53
2024/04/04 07:37:46;;;;;;;7.47;2.90;;;;;;;;;;5092331;28;20593;-53
2024/04/04 07:40:12;;;;;;;8.33;2.47;;;;;;;;;;5089306;28;20175;-52
2024/04/04 07:42:38;;;;;;;3.13;2.40;;;;;;;;;;5090048;28;20168;-52
2024/04/04 07:45:06;;;;;;;6.37;2.43;;;;;;;;;;5089114;28;20545;-53
2024/04/04 07:47:32;;;;;;;3.27;2.47;;;;;;;;;;5089732;28;20607;-52
2024/04/04 07:50:03;;;;;;;3.97;2.40;;;;;;;;;;5089142;28;20195;-53
2024/04/04 07:52:29;;;;;;;3.87;2.40;;;;;;;;;;5092766;28;20186;-53
2024/04/04 07:54:55;;;;;;;2.90;2.60;;;;;;;;;;5092992;28;20188;-53
2024/04/04 07:57:21;;;;;;;5.33;2.40;;;;;;;;;;5093601;28;20252;-52
2024/04/04 07:59:47;;;;;;;3.03;2.23;;;;;;;;;;5092933;28;20748;-52
2024/04/04 08:02:13;;;;;;;3.80;1.60;;;;;;;;;;5093776;28;20168;-53
2024/04/04 08:04:39;;;;;;;2.47;1.93;;;;;;;;;;5093628;28;20263;-52
2024/04/04 08:07:05;;;;;;;2.53;1.67;;;;;;;;;;5093235;28;20179;-52
2024/04/04 08:09:31;;;;;;;3.00;1.40;;;;;;;;;;5093086;28;20587;-52
2024/04/04 08:11:57;;;;;;;4.40;1.40;;;;;;;;;;5093355;28;20662;-52
2024/04/04 08:14:25;;;;;;;3.43;1.53;;;;;;;;;;5092813;28;20708;-53
2024/04/04 08:16:51;;;;;;;2.93;1.57;;;;;;;;;;5093384;28;20156;-52
2024/04/04 08:19:17;;;;;;;1.70;1.40;;;;;;;;;;5093243;28;20623;-52
2024/04/04 08:21:43;;;;;;;2.00;1.40;;;;;;;;;;5092391;28;20183;-54
2024/04/04 08:24:09;;;;;;;1.50;1.40;;;;;;;;;;5092267;28;20231;-53
2024/04/04 08:26:35;;;;;;;1.30;1.07;;;;;;;;;;5093257;28;20175;-52
2024/04/04 08:29:01;;;;;;;1.67;1.00;;;;;;;;;;5092687;28;20523;-52
2024/04/04 08:31:27;;;;;;;2.13;1.37;;;;;;;;;;5092606;28;20483;-52
2024/04/04 08:33:54;;;;;;;2.70;1.23;;;;;;;;;;5092852;28;20638;-53
2024/04/04 08:36:20;;;;;;;2.10;1.23;;;;;;;;;;5092104;28;20183;-52
2024/04/04 08:38:46;;;;;;;1.50;1.00;;;;;;;;;;5092574;28;20175;-52
2024/04/04 08:41:13;;;;;;;1.90;1.60;;;;;;;;;;5092831;28;20175;-52
2024/04/04 08:43:39;;;;;;;3.60;1.37;;;;;;;;;;5092427;28;20172;-53
2024/04/04 08:46:08;;;;;;;1.80;1.47;;;;;;;;;;5092746;28;20198;-53
2024/04/04 08:48:35;;;;;;;3.40;1.20;;;;;;;;;;5092625;28;20180;-52
2024/04/04 08:51:01;;;;;;;1.13;1.03;;;;;;;;;;5092024;28;20215;-54
2024/04/04 08:53:27;;;;;;;1.40;1.30;;;;;;;;;;5091853;28;20164;-52
2024/04/04 08:55:56;;;;;;;2.40;1.13;;;;;;;;;;5092268;28;20164;-53
2024/04/04 08:58:23;;;;;;;2.17;1.17;;;;;;;;;;5091904;28;20666;-53
2024/04/04 09:00:50;;;;;;;3.67;1.40;;;;;;;;;;5092755;28;20168;-53
2024/04/04 09:03:17;;;;;;;1.30;1.00;;;;;;;;;;5091334;28;20237;-52
2024/04/04 09:05:43;;;;;;;2.53;1.10;;;;;;;;;;5091730;28;20293;-52
2024/04/04 09:08:10;;;;;;;1.43;1.20;;;;;;;;;;5092083;28;20160;-54
2024/04/04 09:10:36;;;;;;;1.67;1.20;;;;;;;;;;5092111;28;20206;-53
2024/04/04 09:13:04;;;;;;;1.47;1.20;;;;;;;;;;5092245;28;20179;-53
2024/04/04 09:15:30;;;;;;;1.57;1.10;;;;;;;;;;5091871;28;20525;-53
2024/04/04 09:18:06;;;;;;;1.97;0.90;;;;;;;;;;5092126;28;20196;-53
2024/04/04 09:20:32;;;;;;;1.70;1.33;;;;;;;;;;5091741;28;20174;-54
2024/04/04 09:23:00;;;;;;;1.40;1.20;;;;;;;;;;5091399;28;20225;-52
2024/04/04 09:25:27;;;;;;;1.03;1.00;;;;;;;;;;5091735;28;20172;-52
2024/04/04 09:27:53;;;;;;;1.03;0.93;;;;;;;;;;5091983;28;20629;-53
2024/04/04 09:30:19;;;;;;;1.30;1.00;;;;;;;;;;5091234;28;20200;-53
2024/04/04 09:32:48;;;;;;;1.30;1.00;;;;;;;;;;5091576;28;20162;-54
2024/04/04 09:35:15;;;;;;;1.00;1.00;;;;;;;;;;5090993;28;20179;-53
2024/04/04 09:37:41;;;;;;;1.47;1.17;;;;;;;;;;5091679;28;20248;-53
2024/04/04 09:40:07;;;;;;;1.47;1.10;;;;;;;;;;5091208;28;20629;-54
2024/04/04 09:42:34;;;;;;;1.87;1.10;;;;;;;;;;5091512;28;20156;-57
2024/04/04 09:45:00;;;;;;;1.20;1.10;;;;;;;;;;5090786;28;20183;-58
2024/04/04 09:47:27;;;;;;;1.00;1.00;;;;;;;;;;5091282;28;20170;-58
2024/04/04 09:49:53;;;;;;;1.53;1.10;;;;;;;;;;5091084;28;20305;-57
2024/04/04 09:52:22;;;;;;;1.83;1.00;;;;;;;;;;5091111;28;20231;-57
2024/04/04 09:54:49;;;;;;;0.90;0.90;;;;;;;;;;5090761;28;20160;-57
2024/04/04 09:57:16;;;;;;;1.87;1.40;;;;;;;;;;5091232;28;20218;-56
2024/04/04 09:59:42;;;;;;;0.80;0.80;;;;;;;;;;5090739;28;20770;-57
2024/04/04 10:02:08;;;;;;;2.27;1.17;;;;;;;;;;5091042;28;20168;-56
2024/04/04 10:04:37;;;;;;;1.23;1.13;;;;;;;;;;5091024;28;20167;-57
2024/04/04 10:07:04;;;;;;;2.37;1.20;;;;;;;;;;5090824;28;20164;-57
2024/04/04 10:09:41;;;;;;;1.03;1.03;;;;;;;;;;5090223;28;20194;-57
2024/04/04 10:12:13;;;;;;;1.20;1.10;;;;;;;;;;5090690;28;20242;-56
2024/04/04 10:14:49;;;;;;;1.27;1.10;;;;;;;;;;5089217;28;20554;-58
2024/04/04 10:17:16;;;;;;;1.43;1.17;;;;;;;;;;5089734;28;20409;-57
2024/04/04 10:19:45;;;;;;;1.13;1.03;;;;;;;;;;5090822;28;20390;-56
2024/04/04 10:22:17;;;;;;;1.90;1.10;;;;;;;;;;5090294;28;20635;-57
2024/04/04 10:24:43;;;;;;;1.47;1.10;;;;;;;;;;5090519;28;20579;-57
2024/04/04 10:27:12;;;;;;;2.10;1.17;;;;;;;;;;5090611;28;20267;-57
2024/04/04 10:29:41;;;;;;;1.43;1.30;;;;;;;;;;5090214;28;20204;-57
2024/04/04 10:32:08;;;;;;;1.67;1.03;;;;;;;;;;5090612;28;20160;-56
2024/04/04 10:34:34;;;;;;;1.30;1.20;;;;;;;;;;5092137;28;20171;-56
2024/04/04 10:37:00;;;;;;;3.23;1.57;;;;;;;;;;5100219;28;20273;-57
2024/04/04 10:39:26;;;;;;;1.33;1.10;;;;;;;;;;5108820;28;20197;-56
2024/04/04 10:41:53;;;;;;;2.33;1.33;;;;;;;;;;5110827;28;20183;-57
2024/04/04 10:44:21;;;;;;;1.63;1.40;;;;;;;;;;5110148;28;20157;-57
2024/04/04 10:46:47;;;;;;;2.07;1.63;;;;;;;;;;5109174;28;20240;-56
2024/04/04 10:49:14;;;;;;;2.97;1.20;;;;;;;;;;5110224;28;20166;-56
2024/04/04 10:51:43;;;;;;;8.33;1.33;;;;;;;;;;5110337;28;20156;-56
2024/04/04 10:54:09;;;;;;;2.00;1.43;;;;;;;;;;5110095;28;20623;-54
2024/04/04 10:56:35;;;;;;;3.20;1.57;;;;;;;;;;5100679;28;20671;-54
2024/04/04 10:59:01;;;;;;;3.40;1.63;;;;;;;;;;5090639;28;20182;-54
2024/04/04 11:01:29;;;;;;;3.70;1.23;;;;;;;;;;5096605;28;20279;-55
2024/04/04 11:03:55;;;;;;;3.47;1.60;;;;;;;;;;5110465;28;20194;-55
2024/04/04 11:06:21;;;;;;;2.77;1.30;;;;;;;;;;5102672;28;20176;-55
2024/04/04 11:08:52;;;;;;;4.50;1.50;;;;;;;;;;5105137;28;20247;-55
2024/04/04 11:11:21;;;;;;;2.37;1.60;;;;;;;;;;5089954;28;20756;-55
2024/04/04 11:13:48;;;;;;;1.37;1.10;;;;;;;;;;5089414;28;20180;-55
2024/04/04 11:16:15;;;;;;;3.30;1.50;;;;;;;;;;5091359;28;20168;-55
2024/04/04 11:18:41;;;;;;;1.77;1.10;;;;;;;;;;5097481;28;20239;-55
2024/04/04 11:21:09;;;;;;;2.00;1.27;;;;;;;;;;5089738;28;20168;-55
2024/04/04 11:23:35;;;;;;;1.63;1.40;;;;;;;;;;5089006;28;20307;-55
2024/04/04 11:26:01;;;;;;;1.23;1.10;;;;;;;;;;5094819;28;20680;-54
2024/04/04 11:28:27;;;;;;;2.77;1.37;;;;;;;;;;5109674;28;20250;-55
2024/04/04 11:30:54;;;;;;;1.87;1.57;;;;;;;;;;5110045;28;20194;-55
2024/04/04 11:33:20;;;;;;;3.27;1.30;;;;;;;;;;5109708;28;20377;-55
2024/04/04 11:35:47;;;;;;;3.97;1.30;;;;;;;;;;5108157;28;20173;-55
2024/04/04 11:38:13;;;;;;;1.40;1.30;;;;;;;;;;5109818;28;20161;-55
2024/04/04 11:40:39;;;;;;;3.27;1.57;;;;;;;;;;5110172;28;20171;-54
2024/04/04 11:43:05;;;;;;;2.47;1.23;;;;;;;;;;5104768;28;20784;-54
2024/04/04 11:45:31;;;;;;;2.37;1.30;;;;;;;;;;5089132;28;20628;-55
2024/04/04 11:47:57;;;;;;;1.87;1.37;;;;;;;;;;5089673;28;20267;-55
2024/04/04 11:50:23;;;;;;;5.60;1.47;;;;;;;;;;5088798;28;20208;-54
2024/04/04 11:52:49;;;;;;;3.77;1.83;;;;;;;;;;5089355;28;20157;-54
2024/04/04 11:55:15;;;;;;;4.67;1.80;;;;;;;;;;5089401;28;20172;-55
2024/04/04 11:57:41;;;;;;;5.00;1.93;;;;;;;;;;5089694;28;20172;-55
2024/04/04 12:00:11;;;;;;;2.43;1.70;;;;;;;;;;5089073;28;20253;-55
2024/04/04 12:02:37;;;;;;;4.53;2.03;;;;;;;;;;5104402;28;20629;-54
2024/04/04 12:05:05;;;;;;;1.93;1.50;;;;;;;;;;5090822;28;20176;-55
2024/04/04 12:07:31;;;;;;;2.00;1.57;;;;;;;;;;5110190;28;20623;-55
2024/04/04 12:09:57;;;;;;;2.43;1.43;;;;;;;;;;5109724;28;20993;-55
2024/04/04 12:12:23;;;;;;;1.93;1.40;;;;;;;;;;5110080;28;20175;-55
2024/04/04 12:14:49;;;;;;;3.23;1.60;;;;;;;;;;5109687;28;20155;-55
2024/04/04 12:17:19;;;;;;;1.40;1.27;;;;;;;;;;5110157;28;20196;-55
2024/04/04 12:19:46;;;;;;;3.10;2.20;;;;;;;;;;5109670;28;20189;-55
2024/04/04 12:22:13;;;;;;;1.77;1.60;;;;;;;;;;5109048;28;20184;-55
2024/04/04 12:24:39;;;;;;;4.77;1.40;;;;;;;;;;5108863;28;20172;-54
2024/04/04 12:27:05;;;;;;;3.30;1.50;;;;;;;;;;5109845;28;20534;-55
2024/04/04 12:29:31;;;;;;;1.73;1.20;;;;;;;;;;5108977;28;20548;-55
2024/04/04 12:31:57;;;;;;;3.23;1.37;;;;;;;;;;5109709;28;20616;-55
2024/04/04 12:34:24;;;;;;;2.00;1.40;;;;;;;;;;5109183;28;20218;-55
2024/04/04 12:36:50;;;;;;;4.53;2.50;;;;;;;;;;5099467;28;20508;-55
2024/04/04 12:39:16;;;;;;;3.40;2.43;;;;;;;;;;5091104;28;20246;-55
2024/04/04 12:41:42;;;;;;;2.23;2.00;;;;;;;;;;5092871;28;20212;-55
2024/04/04 12:44:09;;;;;;;3.57;1.80;;;;;;;;;;5091907;28;20175;-55
2024/04/04 12:46:36;;;;;;;2.93;1.53;;;;;;;;;;5092551;28;20164;-55
2024/04/04 12:49:02;;;;;;;4.13;3.00;;;;;;;;;;5092667;28;20163;-55
2024/04/04 12:51:28;;;;;;;6.27;3.00;;;;;;;;;;5091903;28;20182;-55
2024/04/04 12:53:54;;;;;;;4.97;3.43;;;;;;;;;;5092472;28;20644;-56
2024/04/04 12:56:21;;;;;;;6.67;3.40;;;;;;;;;;5092308;28;20667;-55
2024/04/04 12:58:47;;;;;;;6.90;3.57;;;;;;;;;;5091666;28;20167;-55
2024/04/04 13:01:13;;;;;;;5.33;3.13;;;;;;;;;;5092437;28;20171;-55
2024/04/04 13:03:41;;;;;;;7.43;3.03;;;;;;;;;;5092286;28;20230;-54
2024/04/04 13:06:10;;;;;;;6.73;3.57;;;;;;;;;;5091919;28;20247;-54
2024/04/04 13:08:36;;;;;;;4.13;2.63;;;;;;;;;;5091550;28;20164;-56
2024/04/04 13:11:03;;;;;;;3.60;2.70;;;;;;;;;;5092019;28;20184;-57
2024/04/04 13:13:30;;;;;;;4.93;2.50;;;;;;;;;;5091436;28;20679;-57
2024/04/04 13:15:56;;;;;;;5.93;2.40;;;;;;;;;;5092298;28;20618;-57
2024/04/04 13:18:22;;;;;;;5.67;2.50;;;;;;;;;;5091794;28;20697;-58
2024/04/04 13:20:48;;;;;;;5.83;2.57;;;;;;;;;;5091346;28;20167;-58
2024/04/04 13:23:15;;;;;;;5.43;1.93;;;;;;;;;;5091316;28;20690;-57
2024/04/04 13:25:41;;;;;;;5.27;2.40;;;;;;;;;;5091641;28;20593;-57
2024/04/04 13:28:07;;;;;;;3.80;2.10;;;;;;;;;;5073562;28;20180;-57
2024/04/04 13:30:33;;;;;;;2.87;1.90;;;;;;;;;;5091334;28;20188;-57
2024/04/04 13:32:59;;;;;;;3.73;2.07;;;;;;;;;;5091543;28;20167;-58
2024/04/04 13:35:25;;;;;;;6.33;2.47;;;;;;;;;;5091030;28;20156;-58
2024/04/04 13:37:51;;;;;;;4.80;2.10;;;;;;;;;;5109470;28;20268;-57
2024/04/04 13:40:17;;;;;;;5.93;2.27;;;;;;;;;;5111969;28;20195;-58
2024/04/04 13:42:43;;;;;;;4.87;2.13;;;;;;;;;;5112214;28;20640;-57
2024/04/04 13:45:10;;;;;;;3.30;2.10;;;;;;;;;;5110922;28;20183;-58
2024/04/04 13:47:37;;;;;;;4.70;1.80;;;;;;;;;;5112183;28;20220;-57
2024/04/04 13:50:04;;;;;;;3.07;1.90;;;;;;;;;;5111015;28;20194;-57
2024/04/04 13:52:30;;;;;;;4.17;2.00;;;;;;;;;;5111838;28;20186;-58
2024/04/04 13:54:58;;;;;;;5.43;1.80;;;;;;;;;;5111245;28;20270;-56
2024/04/04 13:57:25;;;;;;;4.73;1.87;;;;;;;;;;5111915;28;20598;-56
2024/04/04 13:59:51;;;;;;;4.90;2.00;;;;;;;;;;5111233;28;20658;-53
2024/04/04 14:02:17;;;;;;;4.37;2.03;;;;;;;;;;5092974;28;20339;-53
2024/04/04 14:04:43;;;;;;;4.60;2.27;;;;;;;;;;5111322;28;20202;-53
2024/04/04 14:07:09;;;;;;;2.97;1.73;;;;;;;;;;5111204;28;20270;-53
2024/04/04 14:09:35;;;;;;;3.93;1.93;;;;;;;;;;5110852;28;20240;-54
2024/04/04 14:12:02;;;;;;;2.83;1.63;;;;;;;;;;5111378;28;20167;-54
2024/04/04 14:14:29;;;;;;;5.53;1.87;;;;;;;;;;5110617;28;20189;-57
2024/04/04 14:16:55;;;;;;;2.63;1.90;;;;;;;;;;5111412;28;20154;-58
2024/04/04 14:19:22;;;;;;;6.10;1.73;;;;;;;;;;5110776;28;20172;-57
2024/04/04 14:21:48;;;;;;;4.47;1.80;;;;;;;;;;5110595;28;20257;-58
2024/04/04 14:24:14;;;;;;;3.53;1.63;;;;;;;;;;5110178;28;20229;-58
2024/04/04 14:26:41;;;;;;;3.50;1.87;;;;;;;;;;5110987;28;20167;-58
2024/04/04 14:29:07;;;;;;;4.50;2.07;;;;;;;;;;5110427;28;20176;-58
2024/04/04 14:31:34;;;;;;;3.93;2.23;;;;;;;;;;5110677;28;20163;-58
2024/04/04 14:34:00;;;;;;;1.83;1.60;;;;;;;;;;5110583;28;20196;-58
2024/04/04 14:36:26;;;;;;;4.13;2.23;;;;;;;;;;5110048;28;20171;-57
2024/04/04 14:38:52;;;;;;;4.30;2.17;;;;;;;;;;5110340;28;20164;-58
2024/04/04 14:41:19;;;;;;;4.20;2.13;;;;;;;;;;5110543;28;20171;-58
2024/04/04 14:43:45;;;;;;;7.67;3.00;;;;;;;;;;5110589;28;20198;-58
2024/04/04 14:46:11;;;;;;;5.87;1.97;;;;;;;;;;5110463;28;20167;-58
2024/04/04 14:48:37;;;;;;;4.00;2.70;;;;;;;;;;5110772;28;20273;-57